Forside
METAR-TAF:

METAR-TAF

Lufthavne :

Bratislava, Slovakiet

Breddekreds: 48-12N, længdekreds: 017-12E, højde: 133 m

Aktuelle vejr

Denne rapport blev lavet for 34 minutter siden, kl. 01:00 UTC
Vind 6 kt fra vestnordvest
Temperatur 15°C
Fugtighed 63%
Tryk 1027 hPa
Sigt 10 km eller mere
ingen skyer under 1500m og ingen cumulonimbus

METAR: LZIB 130100Z 29006KT CAVOK 15/08 Q1027 NOSIG

Tid: 03:34 (01:34 UTC)

Vejrudsigter

Denne rapport blev lavet for 2 timer og 19 minutter siden, kl. 23:15 UTC
Foreløbig gælder fra 13 på 00 UTC til 14 på 00 UTC
Vind 8 kt fra vest
Sigt 10 km eller mere
ingen skyer under 1500m og ingen cumulonimbus
ændring
fra 13 på 18 UTC til 13 på 20 UTC
Vind 4 kt fra sydsydvest

TAF: LZIB 122315Z 1300/1400 27008KT CAVOK BECMG 1318/1320 21004KT

Vejrobservationer og prognoser fra mere end 4000 lufthavne (METAR og TAF).

De gule og røde prikker repræsenterer de meteorologiske stationer.

Flyt musen over at se navnet på stationen.

Så klik over at se vejr observationer og prognoser.

At skifte det kort: Klik på de grønne knapper med et sort kors for at zoome ind; på den grønne knap med en bindestreg for at zoome ud; eller på de grønne pile for tilstødende kort.


METAR-TAF: